createdAt,value
2023-01-01T00:00:10.571Z,20.90
2023-01-01T00:02:40.095Z,20.60
2023-01-01T00:05:09.226Z,20.60
2023-01-01T00:07:37.304Z,20.20
2023-01-01T00:10:23.684Z,20.40
2023-01-01T00:15:20.262Z,20.40
2023-01-01T00:17:49.787Z,20.40
2023-01-01T00:20:18.015Z,20.30
2023-01-01T00:22:54.886Z,20.60
2023-01-01T00:25:24.272Z,20.40
2023-01-01T00:27:52.676Z,20.20
2023-01-01T00:30:21.089Z,20.40
2023-01-01T00:32:55.521Z,20.60
2023-01-01T00:35:25.170Z,20.40
2023-01-01T00:37:53.595Z,20.50
2023-01-01T00:40:21.773Z,20.50
2023-01-01T00:42:49.903Z,20.50
2023-01-01T00:45:21.938Z,20.70
2023-01-01T00:47:53.633Z,20.40
2023-01-01T00:50:22.348Z,20.20
2023-01-01T00:52:50.998Z,20.80
2023-01-01T00:55:19.705Z,20.80
2023-01-01T00:57:47.858Z,20.80
2023-01-01T01:00:20.316Z,20.40
2023-01-01T01:02:48.571Z,20.40
2023-01-01T01:05:18.505Z,20.40
2023-01-01T01:07:46.633Z,20.80
2023-01-01T01:10:14.825Z,20.50
2023-01-01T01:12:42.940Z,20.70
2023-01-01T01:15:12.144Z,20.50
2023-01-01T01:17:40.555Z,20.50
2023-01-01T01:20:09.937Z,20.70
2023-01-01T01:22:39.770Z,20.90
2023-01-01T01:25:08.939Z,20.20
2023-01-01T01:27:37.071Z,20.40
2023-01-01T01:30:05.855Z,20.40
2023-01-01T01:32:33.983Z,20.10
2023-01-01T01:35:02.127Z,20.60
2023-01-01T01:40:00.171Z,20.30
2023-01-01T01:42:28.325Z,20.90
2023-01-01T01:44:59.256Z,20.40
2023-01-01T01:47:34.920Z,20.90
2023-01-01T01:50:09.331Z,20.50
2023-01-01T01:52:40.929Z,20.20
2023-01-01T01:55:11.809Z,20.40
2023-01-01T01:57:41.937Z,20.50
2023-01-01T02:00:11.988Z,20.50
2023-01-01T02:02:46.741Z,20.50
2023-01-01T02:07:44.083Z,20.20
2023-01-01T02:10:13.676Z,20.60
2023-01-01T02:12:41.815Z,20.50
2023-01-01T02:15:10.848Z,20.30
2023-01-01T02:17:45.831Z,19.90
2023-01-01T02:20:35.643Z,20.30
2023-01-01T02:23:21.987Z,20.20
2023-01-01T02:26:02.461Z,20.10
2023-01-01T02:28:44.347Z,20.40
2023-01-01T02:31:21.217Z,20.60
2023-01-01T02:33:51.874Z,20.50
2023-01-01T02:36:22.721Z,20.40
2023-01-01T02:38:54.280Z,20.70
2023-01-01T02:41:27.868Z,20.10
2023-01-01T02:46:32.693Z,20.20
2023-01-01T02:49:06.266Z,20.00
2023-01-01T02:51:49.756Z,20.20
2023-01-01T02:54:21.196Z,20.90
2023-01-01T02:56:53.707Z,20.30
2023-01-01T02:59:50.721Z,20.40
2023-01-01T03:02:27.351Z,20.40
2023-01-01T03:05:05.091Z,20.40
2023-01-01T03:07:42.185Z,20.00
2023-01-01T03:10:16.417Z,20.20
2023-01-01T03:12:53.469Z,20.00
2023-01-01T03:15:29.102Z,20.60
2023-01-01T03:18:04.111Z,20.50
2023-01-01T03:23:08.581Z,20.40
2023-01-01T03:28:12.034Z,20.70
2023-01-01T03:30:43.011Z,20.20
2023-01-01T03:33:19.749Z,20.20
2023-01-01T03:35:51.520Z,20.30
2023-01-01T03:38:23.813Z,20.30
2023-01-01T03:41:00.171Z,20.20
2023-01-01T03:43:35.779Z,19.90
2023-01-01T03:46:09.139Z,20.20
2023-01-01T03:51:36.285Z,20.40
2023-01-01T03:54:11.655Z,20.30
2023-01-01T03:56:46.484Z,20.20
2023-01-01T03:59:21.257Z,19.90
2023-01-01T04:01:54.374Z,20.40
2023-01-01T04:06:51.016Z,20.50
2023-01-01T04:09:25.118Z,20.00
2023-01-01T04:12:04.354Z,20.10
2023-01-01T04:14:34.406Z,20.30
2023-01-01T04:17:05.010Z,20.50
2023-01-01T04:19:33.387Z,20.40
2023-01-01T04:22:01.900Z,19.60
2023-01-01T04:24:30.281Z,20.70
2023-01-01T04:26:58.756Z,20.60
2023-01-01T04:29:26.877Z,20.60
2023-01-01T04:31:55.161Z,19.80
2023-01-01T04:34:24.633Z,20.60
2023-01-01T04:36:53.091Z,20.10
2023-01-01T04:39:21.171Z,20.20
2023-01-01T04:41:49.447Z,20.60
2023-01-01T04:44:17.583Z,20.10
2023-01-01T04:46:45.749Z,20.10
2023-01-01T04:49:13.895Z,20.20
2023-01-01T04:51:43.397Z,20.30
2023-01-01T04:54:11.519Z,20.40
2023-01-01T04:56:39.732Z,20.00
2023-01-01T04:59:08.001Z,20.50
2023-01-01T05:01:36.190Z,20.00
2023-01-01T05:04:04.442Z,19.90
2023-01-01T05:06:32.549Z,20.40
2023-01-01T05:09:04.106Z,20.20
2023-01-01T05:11:32.952Z,20.30
2023-01-01T05:14:02.361Z,20.40
2023-01-01T05:16:33.428Z,20.20
2023-01-01T05:19:02.601Z,20.60
2023-01-01T05:21:32.728Z,20.20
2023-01-01T05:24:03.821Z,20.30
2023-01-01T05:26:33.571Z,20.30
2023-01-01T05:29:02.478Z,20.60
2023-01-01T05:31:32.955Z,20.50
2023-01-01T05:36:30.201Z,20.20
2023-01-01T05:38:58.936Z,20.90
2023-01-01T05:41:31.144Z,20.70
2023-01-01T05:43:59.258Z,20.70
2023-01-01T05:46:27.955Z,20.10
2023-01-01T05:48:56.198Z,20.20
2023-01-01T05:51:26.090Z,20.40
2023-01-01T05:53:55.694Z,21.00
2023-01-01T05:56:23.901Z,19.90
2023-01-01T05:58:53.445Z,20.20
2023-01-01T06:01:23.040Z,20.70
2023-01-01T06:03:51.934Z,20.30
2023-01-01T06:06:22.090Z,19.80
2023-01-01T06:08:51.838Z,20.60
2023-01-01T06:11:20.460Z,20.20
2023-01-01T06:13:49.016Z,20.90
2023-01-01T06:16:18.543Z,20.40
2023-01-01T06:21:16.806Z,21.00
2023-01-01T06:23:45.133Z,20.60
2023-01-01T06:26:15.070Z,20.30
2023-01-01T06:28:43.446Z,20.80
2023-01-01T06:31:13.410Z,20.70
2023-01-01T06:33:42.739Z,20.20
2023-01-01T06:36:12.651Z,20.80
2023-01-01T06:38:41.831Z,20.70
2023-01-01T06:41:12.737Z,20.30
2023-01-01T06:43:41.507Z,20.60
2023-01-01T06:46:15.902Z,20.30
2023-01-01T06:48:46.276Z,20.90
2023-01-01T06:51:16.965Z,20.70
2023-01-01T06:53:45.328Z,20.50
2023-01-01T06:56:13.485Z,20.50
2023-01-01T06:58:41.634Z,20.60
2023-01-01T07:01:13.135Z,20.40
2023-01-01T07:03:42.236Z,20.90
2023-01-01T07:06:12.343Z,20.50
2023-01-01T07:08:40.461Z,20.60
2023-01-01T07:11:08.571Z,21.00
2023-01-01T07:13:36.984Z,20.00
2023-01-01T07:16:12.179Z,20.40
2023-01-01T07:18:41.060Z,20.60
2023-01-01T07:21:29.417Z,20.30
2023-01-01T07:23:58.588Z,20.50
2023-01-01T07:26:28.494Z,20.50
2023-01-01T07:28:59.635Z,20.00
2023-01-01T07:31:34.854Z,20.50
2023-01-01T07:34:03.162Z,20.50
2023-01-01T07:36:32.676Z,20.50
2023-01-01T07:39:00.826Z,20.60
2023-01-01T07:41:28.957Z,20.30
2023-01-01T07:43:57.050Z,20.50
2023-01-01T07:46:25.291Z,20.50
2023-01-01T07:48:53.505Z,21.00
2023-01-01T07:51:21.646Z,20.20
2023-01-01T07:53:51.171Z,20.30
2023-01-01T07:56:19.682Z,20.40
2023-01-01T07:58:47.777Z,20.50
2023-01-01T08:01:16.138Z,20.50
2023-01-01T08:03:44.313Z,20.60
2023-01-01T08:06:13.989Z,20.40
2023-01-01T08:08:42.415Z,20.60
2023-01-01T08:11:11.896Z,20.50
2023-01-01T08:13:40.117Z,20.40
2023-01-01T08:16:08.997Z,20.70
2023-01-01T08:18:37.516Z,20.80
2023-01-01T08:21:06.776Z,20.90
2023-01-01T08:26:04.848Z,20.30
2023-01-01T08:28:34.315Z,21.00
2023-01-01T08:31:02.469Z,20.50
2023-01-01T08:33:30.640Z,20.80
2023-01-01T08:35:58.905Z,20.50
2023-01-01T08:38:27.102Z,20.80
2023-01-01T08:40:55.238Z,21.30
2023-01-01T08:43:23.330Z,20.50
2023-01-01T08:45:53.312Z,20.80
2023-01-01T08:48:24.378Z,20.10
2023-01-01T08:50:57.754Z,21.50
2023-01-01T08:53:28.593Z,20.80
2023-01-01T08:55:59.267Z,20.50
2023-01-01T08:58:30.613Z,21.70
2023-01-01T09:01:01.175Z,21.10
2023-01-01T09:03:29.969Z,20.90
2023-01-01T09:05:59.763Z,20.90
2023-01-01T09:08:28.355Z,21.20
2023-01-01T09:11:00.519Z,20.60
2023-01-01T09:13:29.071Z,20.70
2023-01-01T09:15:57.753Z,20.50
2023-01-01T09:18:27.964Z,21.00
2023-01-01T09:23:24.492Z,20.80
2023-01-01T09:25:53.530Z,20.60
2023-01-01T09:28:25.627Z,20.90
2023-01-01T09:30:54.321Z,21.10
2023-01-01T09:33:22.654Z,21.20
2023-01-01T09:35:52.284Z,20.50
2023-01-01T09:41:00.107Z,20.60
2023-01-01T09:43:41.999Z,20.00
2023-01-01T09:48:46.284Z,20.70
2023-01-01T09:51:19.322Z,20.80
2023-01-01T09:53:52.163Z,20.30
2023-01-01T09:56:24.504Z,21.10
2023-01-01T09:58:52.948Z,21.20
2023-01-01T10:01:34.675Z,20.90
2023-01-01T10:04:12.294Z,21.00
2023-01-01T10:06:50.401Z,21.10
2023-01-01T10:09:26.767Z,20.90
2023-01-01T10:12:00.162Z,21.20
2023-01-01T10:14:33.200Z,21.10
2023-01-01T10:17:04.779Z,21.00
2023-01-01T10:19:38.244Z,21.20
2023-01-01T10:22:14.243Z,20.80
2023-01-01T10:24:47.169Z,20.90
2023-01-01T10:27:29.235Z,21.40
2023-01-01T10:30:03.872Z,20.80
2023-01-01T10:32:34.984Z,21.20
2023-01-01T10:35:04.850Z,21.30
2023-01-01T10:37:38.709Z,21.10
2023-01-01T10:40:15.652Z,21.30
2023-01-01T10:42:44.426Z,21.10
2023-01-01T10:45:16.290Z,21.70
2023-01-01T10:48:12.571Z,21.60
2023-01-01T10:50:47.335Z,21.40
2023-01-01T10:53:28.396Z,21.70
2023-01-01T10:56:02.816Z,21.70
2023-01-01T10:58:45.605Z,21.80
2023-01-01T11:01:21.478Z,22.00
2023-01-01T11:03:58.216Z,21.60
2023-01-01T11:06:27.878Z,21.70
2023-01-01T11:09:00.505Z,22.00
2023-01-01T11:11:30.901Z,22.10
2023-01-01T11:14:03.625Z,22.20
2023-01-01T11:16:32.193Z,22.00
2023-01-01T11:19:06.549Z,22.20
2023-01-01T11:21:35.991Z,22.20
2023-01-01T11:24:21.972Z,21.80
2023-01-01T11:26:54.930Z,22.10
2023-01-01T11:29:27.714Z,22.30
2023-01-01T11:31:57.357Z,22.30
2023-01-01T11:34:35.512Z,22.60
2023-01-01T11:37:28.046Z,22.40
2023-01-01T11:40:00.186Z,22.70
2023-01-01T11:42:31.595Z,23.20
2023-01-01T11:45:02.266Z,22.60
2023-01-01T11:47:34.424Z,22.60
2023-01-01T11:50:09.082Z,22.40
2023-01-01T11:52:40.605Z,22.60
2023-01-01T11:55:20.346Z,22.40
2023-01-01T11:58:00.492Z,23.00
2023-01-01T12:00:33.633Z,22.00
2023-01-01T12:03:07.568Z,22.70
2023-01-01T12:05:46.026Z,22.30
2023-01-01T12:08:21.920Z,22.60
2023-01-01T12:10:56.979Z,22.60
2023-01-01T12:13:30.563Z,22.00
2023-01-01T12:16:07.549Z,22.60
2023-01-01T12:18:41.932Z,22.60
2023-01-01T12:21:16.163Z,22.60
2023-01-01T12:23:44.456Z,22.60
2023-01-01T12:26:23.175Z,22.20
2023-01-01T12:29:22.686Z,22.40
2023-01-01T12:31:58.698Z,22.00
2023-01-01T12:34:32.059Z,22.20
2023-01-01T12:37:04.746Z,22.70
2023-01-01T12:40:27.666Z,23.00
2023-01-01T12:43:03.557Z,23.10
2023-01-01T12:45:52.742Z,22.90
2023-01-01T12:48:43.249Z,22.40
2023-01-01T12:51:26.313Z,22.40
2023-01-01T12:54:07.862Z,22.60
2023-01-01T12:56:42.181Z,22.40
2023-01-01T12:59:15.520Z,22.70
2023-01-01T13:01:44.148Z,21.80
2023-01-01T13:04:15.412Z,22.60
2023-01-01T13:06:48.641Z,22.50
2023-01-01T13:09:19.116Z,22.30
2023-01-01T13:11:50.574Z,22.40
2023-01-01T13:14:20.199Z,22.50
2023-01-01T13:16:52.700Z,22.20
2023-01-01T13:19:27.995Z,22.40
2023-01-01T13:21:56.147Z,23.00
2023-01-01T13:24:26.421Z,22.50
2023-01-01T13:26:55.011Z,22.30
2023-01-01T13:29:50.584Z,22.20
2023-01-01T13:32:18.695Z,23.10
2023-01-01T13:35:16.058Z,23.00
2023-01-01T13:37:48.543Z,22.40
2023-01-01T13:40:51.404Z,22.60
2023-01-01T13:43:31.056Z,21.70
2023-01-01T13:46:14.591Z,22.20
2023-01-01T13:49:22.909Z,22.30
2023-01-01T13:52:16.069Z,22.30
2023-01-01T13:55:29.972Z,22.20
2023-01-01T13:58:37.270Z,21.30
2023-01-01T14:01:28.541Z,22.20
2023-01-01T14:03:59.868Z,22.00
2023-01-01T14:06:31.927Z,21.70
2023-01-01T14:09:06.621Z,22.30
2023-01-01T14:11:34.759Z,22.00
2023-01-01T14:14:02.983Z,22.00
2023-01-01T14:16:33.829Z,21.60
2023-01-01T14:19:03.533Z,22.20
2023-01-01T14:21:34.503Z,22.10
2023-01-01T14:24:05.185Z,22.00
2023-01-01T14:26:37.500Z,22.00
2023-01-01T14:29:09.110Z,22.10
2023-01-01T14:31:43.654Z,21.90
2023-01-01T14:34:16.344Z,22.00
2023-01-01T14:36:52.413Z,22.20
2023-01-01T14:39:28.006Z,22.40
2023-01-01T14:42:00.040Z,22.20
2023-01-01T14:44:34.183Z,22.10
2023-01-01T14:47:05.480Z,21.90
2023-01-01T14:49:38.349Z,22.10
2023-01-01T14:52:10.252Z,22.60
2023-01-01T14:54:44.598Z,21.90
2023-01-01T14:57:28.863Z,22.30
2023-01-01T14:59:57.114Z,22.20
2023-01-01T15:02:29.199Z,21.80
2023-01-01T15:04:58.768Z,21.80
2023-01-01T15:07:29.250Z,21.70
2023-01-01T15:10:00.464Z,21.90
2023-01-01T15:12:29.101Z,22.00
2023-01-01T15:14:58.245Z,21.60
2023-01-01T15:17:29.060Z,21.20
2023-01-01T15:20:06.394Z,21.40
2023-01-01T15:22:39.218Z,21.30
2023-01-01T15:25:14.257Z,21.70
2023-01-01T15:27:44.053Z,21.40
2023-01-01T15:30:25.864Z,22.20
2023-01-01T15:32:56.541Z,22.00
2023-01-01T15:35:32.245Z,21.70
2023-01-01T15:38:02.537Z,21.60
2023-01-01T15:40:37.387Z,21.60
2023-01-01T15:43:27.083Z,21.80
2023-01-01T15:46:00.395Z,21.40
2023-01-01T15:48:33.499Z,21.00
2023-01-01T15:51:05.876Z,21.50
2023-01-01T15:53:47.940Z,21.20
2023-01-01T15:56:17.156Z,21.80
2023-01-01T15:58:51.559Z,21.50
2023-01-01T16:01:24.163Z,21.00
2023-01-01T16:04:03.972Z,21.50
2023-01-01T16:06:32.248Z,21.40
2023-01-01T16:09:00.345Z,21.20
2023-01-01T16:11:28.596Z,20.80
2023-01-01T16:13:56.670Z,21.60
2023-01-01T16:16:29.986Z,21.40
2023-01-01T16:18:59.762Z,20.90
2023-01-01T16:21:29.877Z,21.40
2023-01-01T16:23:57.985Z,21.60
2023-01-01T16:26:26.724Z,21.90
2023-01-01T16:28:54.828Z,21.30
2023-01-01T16:31:26.656Z,21.70
2023-01-01T16:33:56.715Z,21.00
2023-01-01T16:36:29.198Z,21.00
2023-01-01T16:38:58.230Z,21.10
2023-01-01T16:41:28.727Z,21.70
2023-01-01T16:43:56.847Z,20.90
2023-01-01T16:46:26.687Z,21.30
2023-01-01T16:48:54.767Z,21.20
2023-01-01T16:51:28.149Z,21.10
2023-01-01T16:53:57.434Z,21.30
2023-01-01T16:56:25.592Z,20.90
2023-01-01T16:59:02.152Z,21.40
2023-01-01T17:01:31.763Z,21.10
2023-01-01T17:04:00.710Z,21.40
2023-01-01T17:06:30.258Z,21.20
2023-01-01T17:09:00.048Z,21.30
2023-01-01T17:11:28.368Z,21.10
2023-01-01T17:13:56.600Z,21.90
2023-01-01T17:16:28.193Z,21.20
2023-01-01T17:19:15.582Z,21.20
2023-01-01T17:21:46.794Z,21.50
2023-01-01T17:24:14.992Z,20.80
2023-01-01T17:26:43.195Z,21.10
2023-01-01T17:29:12.012Z,20.90
2023-01-01T17:31:40.313Z,21.40
2023-01-01T17:34:13.137Z,21.60
2023-01-01T17:36:42.988Z,20.90
2023-01-01T17:39:13.860Z,21.10
2023-01-01T17:41:42.221Z,21.00
2023-01-01T17:44:11.657Z,21.60
2023-01-01T17:46:40.310Z,21.20
2023-01-01T17:49:09.130Z,21.40
2023-01-01T17:51:37.499Z,21.10
2023-01-01T17:54:07.335Z,21.30
2023-01-01T17:56:36.726Z,21.50
2023-01-01T17:59:04.880Z,21.10
2023-01-01T18:01:35.414Z,21.60
2023-01-01T18:04:05.759Z,21.10
2023-01-01T18:06:40.304Z,21.30
2023-01-01T18:09:12.462Z,20.90
2023-01-01T18:11:43.073Z,21.00
2023-01-01T18:14:12.054Z,21.10
2023-01-01T18:16:42.992Z,21.10
2023-01-01T18:19:11.123Z,20.90
2023-01-01T18:26:39.925Z,20.90
2023-01-01T18:29:09.550Z,20.40
2023-01-01T18:31:38.051Z,20.60
2023-01-01T18:36:36.204Z,20.10
2023-01-01T18:39:11.207Z,20.20
2023-01-01T18:41:54.958Z,19.90
2023-01-01T18:44:26.510Z,19.70
2023-01-01T18:46:59.051Z,20.90
2023-01-01T18:49:27.295Z,20.30
2023-01-01T18:51:58.263Z,20.60
2023-01-01T18:54:31.843Z,20.80
2023-01-01T18:57:11.044Z,20.80
2023-01-01T18:59:41.308Z,20.10
2023-01-01T19:02:26.860Z,21.10
2023-01-01T19:04:57.922Z,20.40
2023-01-01T19:07:26.887Z,20.50
2023-01-01T19:09:59.001Z,20.70
2023-01-01T19:12:28.535Z,21.50
2023-01-01T19:14:58.097Z,20.60
2023-01-01T19:17:26.215Z,21.00
2023-01-01T19:19:54.405Z,20.20
2023-01-01T19:22:29.790Z,20.20
2023-01-01T19:24:57.943Z,20.30
2023-01-01T19:27:27.166Z,21.10
2023-01-01T19:29:55.771Z,20.90
2023-01-01T19:32:26.488Z,20.90
2023-01-01T19:34:56.153Z,20.70
2023-01-01T19:37:24.509Z,20.40
2023-01-01T19:39:53.084Z,21.20
2023-01-01T19:47:30.137Z,20.60
2023-01-01T19:49:58.040Z,20.50
2023-01-01T19:52:27.269Z,20.60
2023-01-01T19:54:55.462Z,20.50
2023-01-01T19:57:23.761Z,20.10
2023-01-01T19:59:51.873Z,20.70
2023-01-01T20:05:11.958Z,20.80
2023-01-01T20:07:41.105Z,20.00
2023-01-01T20:10:12.877Z,20.70
2023-01-01T20:12:41.830Z,20.60
2023-01-01T20:15:11.166Z,20.10
2023-01-01T20:17:39.562Z,20.90
2023-01-01T20:20:08.779Z,20.60
2023-01-01T20:22:40.123Z,20.50
2023-01-01T20:25:09.522Z,20.50
2023-01-01T20:27:57.976Z,21.10
2023-01-01T20:30:28.785Z,20.20
2023-01-01T20:32:56.949Z,20.60
2023-01-01T20:35:45.833Z,20.40
2023-01-01T20:38:16.340Z,20.30
2023-01-01T20:43:13.235Z,20.80
2023-01-01T20:45:41.518Z,20.50
2023-01-01T20:48:13.431Z,20.70
2023-01-01T20:50:44.410Z,21.00
2023-01-01T20:53:12.883Z,20.70
2023-01-01T20:55:42.392Z,20.70
2023-01-01T20:58:10.659Z,21.10
2023-01-01T21:00:38.778Z,20.30
2023-01-01T21:03:07.155Z,20.80
2023-01-01T21:05:36.886Z,21.00
2023-01-01T21:10:33.781Z,20.60
2023-01-01T21:13:03.325Z,21.20
2023-01-01T21:15:31.449Z,20.60
2023-01-01T21:18:00.149Z,20.70
2023-01-01T21:20:32.064Z,20.90
2023-01-01T21:23:01.368Z,19.90
2023-01-01T21:28:21.638Z,20.70
2023-01-01T21:30:51.277Z,20.50
2023-01-01T21:33:27.288Z,21.00
2023-01-01T21:35:55.953Z,20.50
2023-01-01T21:38:26.330Z,20.50
2023-01-01T21:40:55.709Z,20.50
2023-01-01T21:43:34.299Z,21.00
2023-01-01T21:46:24.752Z,20.30
2023-01-01T21:48:57.895Z,20.60
2023-01-01T21:51:27.861Z,20.30
2023-01-01T21:54:03.109Z,20.40
2023-01-01T21:56:34.190Z,20.00
2023-01-01T21:59:28.495Z,20.40
2023-01-01T22:02:09.401Z,20.20
2023-01-01T22:04:40.654Z,20.30
2023-01-01T22:10:16.324Z,20.20
2023-01-01T22:12:45.247Z,20.40
2023-01-01T22:15:30.161Z,20.20
2023-01-01T22:18:22.026Z,20.30
2023-01-01T22:20:50.586Z,20.10
2023-01-01T22:23:29.553Z,20.10
2023-01-01T22:25:57.694Z,19.90
2023-01-01T22:28:27.243Z,20.10
2023-01-01T22:30:59.669Z,19.80
2023-01-01T22:33:34.197Z,20.00
2023-01-01T22:38:34.634Z,19.80
2023-01-01T22:43:33.335Z,20.00
2023-01-01T22:46:11.708Z,19.90
2023-01-01T22:48:40.908Z,20.10
2023-01-01T22:51:14.990Z,20.10
2023-01-01T22:53:43.100Z,20.20
2023-01-01T23:01:10.192Z,20.20
2023-01-01T23:03:38.333Z,19.90
2023-01-01T23:06:07.329Z,20.10
2023-01-01T23:16:31.565Z,19.70
2023-01-01T23:18:59.715Z,19.80
2023-01-01T23:23:58.454Z,20.40
2023-01-01T23:26:27.228Z,19.70
2023-01-01T23:28:56.780Z,20.00
2023-01-01T23:31:27.197Z,20.10
2023-01-01T23:33:58.154Z,19.40
2023-01-01T23:48:49.718Z,19.90
2023-01-01T23:51:19.569Z,20.20
2023-01-01T23:56:16.382Z,20.10
